Time;durP1;ratioP1;P1;durP2;ratioP2;P2;SDS_P1;SDS_P2;PMS_P1;PMS_P2;Temp;Humidity;BMP_temperature;BMP_pressure;BME280_temperature;BME280_humidity;BME280_pressure;Samples;Min_cycle;Max_cycle;Signal;HPM_P1;HPM_P2
2022/09/10 00:00:31;;;;;;;;;;;;;;;15.15;88.05;100988.81;1979016;30;20397;-68
2022/09/10 00:01:34;;;;;;;;;;;;;;;15.16;88.00;100991.16;1979798;29;19932;-68
2022/09/10 00:02:38;;;;;;;;;;;;;;;15.18;88.33;100983.44;1972078;30;20016;-69
2022/09/10 00:03:42;;;;;;;;;;;;;;;15.19;88.20;100979.53;1972628;30;19929;-68
2022/09/10 00:04:45;;;;;;;;;;;;;;;15.20;88.37;100988.50;1979992;29;19929;-69
2022/09/10 00:05:49;;;;;;;;;;;;;;;15.21;88.55;100993.56;1980187;30;19925;-68
2022/09/10 00:06:57;;;;;;;;;;;;;;;15.21;88.79;100990.84;1979887;29;19926;-68
2022/09/10 00:08:00;;;;;;;;;;;;;;;15.23;88.62;100999.44;1979662;29;19976;-67
2022/09/10 00:09:05;;;;;;;;;;;;;;;15.23;88.71;100994.00;1980380;30;19925;-67
2022/09/10 00:10:07;;;;;;;;;;;;;;;15.25;88.40;100993.63;1980009;29;19933;-68
2022/09/10 00:11:10;;;;;;;;;;;;;;;15.26;88.93;100985.09;1979708;29;19929;-68
2022/09/10 00:12:13;;;;;;;;;;;;;;;15.26;88.95;100993.25;1980141;30;20413;-68
2022/09/10 00:13:17;;;;;;;;;;;;;;;15.27;88.81;100989.38;1979906;29;20413;-69
2022/09/10 00:14:22;;;;;;;;;;;;;;;15.26;88.66;100990.53;1980165;29;20500;-68
2022/09/10 00:15:23;;;;;;;;;;;;;;;15.29;88.56;100989.78;1980188;29;20516;-68
2022/09/10 00:16:26;;;;;;;;;;;;;;;15.30;88.80;100988.63;1979981;29;19925;-68
2022/09/10 00:17:28;;;;;;;;;;;;;;;15.30;88.76;100991.34;1979994;29;19930;-67
2022/09/10 00:18:31;;;;;;;;;;;;;;;15.33;88.62;100995.28;1980196;30;19941;-68
2022/09/10 00:19:34;;;;;;;;;;;;;;;15.35;88.58;100988.31;1978411;30;19933;-67
2022/09/10 00:20:41;;;;;;;;;;;;;;;15.37;88.53;100985.22;1980111;29;20396;-68
2022/09/10 00:21:44;;;;;;;;;;;;;;;15.37;88.77;100994.19;1977489;30;19926;-68
2022/09/10 00:22:47;;;;;;;;;;;;;;;15.37;88.76;100986.00;1980208;29;19937;-68
2022/09/10 00:23:49;;;;;;;;;;;;;;;15.35;89.00;100988.31;1980073;29;19925;-67
2022/09/10 00:24:55;;;;;;;;;;;;;;;15.34;88.63;100992.19;1972700;30;20383;-68
2022/09/10 00:25:58;;;;;;;;;;;;;;;15.34;88.31;100999.56;1971434;30;19926;-68
2022/09/10 00:27:00;;;;;;;;;;;;;;;15.35;88.38;100998.44;1978538;29;19929;-68
2022/09/10 00:28:03;;;;;;;;;;;;;;;15.34;88.70;100992.19;1979754;30;20844;-68
2022/09/10 00:29:05;;;;;;;;;;;;;;;15.35;88.97;100993.00;1979866;29;20555;-66
2022/09/10 00:30:08;;;;;;;;;;;;;;;15.34;89.64;100989.47;1980470;30;19982;-69
2022/09/10 00:31:12;;;;;;;;;;;;;;;15.36;89.23;100989.91;1979963;30;20019;-67
2022/09/10 00:32:14;;;;;;;;;;;;;;;15.33;89.27;100990.63;1979824;29;20296;-67
2022/09/10 00:33:17;;;;;;;;;;;;;;;15.32;88.87;100999.94;1977507;30;19933;-68
2022/09/10 00:34:20;;;;;;;;;;;;;;;15.32;88.69;100989.06;1970974;30;19925;-68
2022/09/10 00:35:22;;;;;;;;;;;;;;;15.33;89.16;100987.91;1980066;29;20242;-68
2022/09/10 00:36:26;;;;;;;;;;;;;;;15.33;89.56;100987.91;1979926;30;19933;-69
2022/09/10 00:37:27;;;;;;;;;;;;;;;15.31;89.81;100990.22;1978196;29;20459;-69
2022/09/10 00:38:30;;;;;;;;;;;;;;;15.29;89.94;100984.34;1979635;29;19936;-70
2022/09/10 00:39:33;;;;;;;;;;;;;;;15.29;89.80;100987.06;1980219;29;19925;-69
2022/09/10 00:40:40;;;;;;;;;;;;;;;15.27;89.87;100989.38;1981259;29;19982;-69
2022/09/10 00:41:44;;;;;;;;;;;;;;;15.27;90.00;100988.59;1977271;29;20402;-68
2022/09/10 00:42:46;;;;;;;;;;;;;;;15.27;89.83;100988.59;1975916;30;20044;-69
2022/09/10 00:43:50;;;;;;;;;;;;;;;15.29;89.79;100989.00;1979444;29;19978;-68
2022/09/10 00:44:55;;;;;;;;;;;;;;;15.28;89.74;100990.97;1973081;30;19983;-68
2022/09/10 00:45:58;;;;;;;;;;;;;;;15.28;89.74;100993.69;1979553;29;19930;-69
2022/09/10 00:47:03;;;;;;;;;;;;;;;15.28;89.37;100993.69;1977178;29;19932;-69
2022/09/10 00:48:08;;;;;;;;;;;;;;;15.31;89.30;101001.09;1979879;30;20174;-69
2022/09/10 00:49:14;;;;;;;;;;;;;;;15.33;89.43;100996.09;1979649;29;19925;-68
2022/09/10 00:50:21;;;;;;;;;;;;;;;15.34;89.70;100992.19;1980087;30;19948;-68
2022/09/10 00:51:29;;;;;;;;;;;;;;;15.34;89.64;101000.34;1972478;30;19971;-66
2022/09/10 00:52:33;;;;;;;;;;;;;;;15.35;89.24;100999.19;1970516;30;19934;-67
2022/09/10 00:53:40;;;;;;;;;;;;;;;15.38;89.33;101003.13;1971481;30;20008;-68
2022/09/10 00:54:44;;;;;;;;;;;;;;;15.39;89.33;100997.34;1971605;30;20006;-68
2022/09/10 00:55:49;;;;;;;;;;;;;;;15.40;89.42;101001.63;1972003;30;20024;-68
2022/09/10 00:56:53;;;;;;;;;;;;;;;15.44;89.27;101007.91;1979996;29;19940;-68
2022/09/10 00:57:57;;;;;;;;;;;;;;;15.45;89.47;101011.41;1979902;29;19929;-69
2022/09/10 00:59:00;;;;;;;;;;;;;;;15.43;89.57;101006.34;1979460;29;20408;-68
2022/09/10 01:00:04;;;;;;;;;;;;;;;15.43;89.81;101008.28;1979006;29;19929;-68
2022/09/10 01:01:07;;;;;;;;;;;;;;;15.41;89.90;101008.66;1979831;30;19929;-68
2022/09/10 01:02:09;;;;;;;;;;;;;;;15.39;89.73;101008.25;1979944;29;19929;-69
2022/09/10 01:03:14;;;;;;;;;;;;;;;15.39;89.88;101004.72;1979470;29;19979;-68
2022/09/10 01:04:16;;;;;;;;;;;;;;;15.38;89.89;101006.66;1979625;30;19929;-68
2022/09/10 01:05:19;;;;;;;;;;;;;;;15.38;90.01;101008.56;1979466;29;19929;-68
2022/09/10 01:06:21;;;;;;;;;;;;;;;15.38;89.88;101008.56;1978848;29;20054;-69
2022/09/10 01:07:24;;;;;;;;;;;;;;;15.38;90.23;101008.56;1964924;30;19969;-68
2022/09/10 01:08:26;;;;;;;;;;;;;;;15.39;90.13;101012.88;1969705;30;19930;-68
2022/09/10 01:09:29;;;;;;;;;;;;;;;15.37;90.35;101005.06;1979679;29;19930;-68
2022/09/10 01:10:35;;;;;;;;;;;;;;;15.37;90.36;101005.06;1971382;30;20900;-69
2022/09/10 01:11:48;;;;;;;;;;;;;;;15.36;89.64;101008.94;1963907;30;20459;-69
2022/09/10 01:13:00;;;;;;;;;;;;;;;15.37;89.85;101007.78;1966414;30;19929;-68
2022/09/10 01:14:12;;;;;;;;;;;;;;;15.38;89.80;101003.94;1972229;30;19941;-68
2022/09/10 01:15:21;;;;;;;;;;;;;;;15.37;89.96;101005.06;1977320;29;20306;-67
2022/09/10 01:16:29;;;;;;;;;;;;;;;15.38;89.89;101003.13;1969326;30;19993;-67
2022/09/10 01:17:36;;;;;;;;;;;;;;;15.38;89.99;101003.13;1979349;29;20160;-67
2022/09/10 01:18:44;;;;;;;;;;;;;;;15.34;90.04;101007.72;1972805;29;19930;-68
2022/09/10 01:19:57;;;;;;;;;;;;;;;15.32;90.17;101005.38;1965904;30;19930;-68
2022/09/10 01:21:11;;;;;;;;;;;;;;;15.31;89.73;101011.19;1967177;30;19930;-68
2022/09/10 01:22:17;;;;;;;;;;;;;;;15.28;90.00;100999.13;1979609;30;20370;-68
2022/09/10 01:23:36;;;;;;;;;;;;;;;15.26;90.31;101001.41;1979170;29;19930;-68
2022/09/10 01:24:51;;;;;;;;;;;;;;;15.26;89.93;101006.06;1976396;30;19932;-68
2022/09/10 01:25:59;;;;;;;;;;;;;;;15.25;90.51;101005.28;1971527;29;19977;-68
2022/09/10 01:27:15;;;;;;;;;;;;;;;15.24;90.03;101005.66;1972370;29;19932;-68
2022/09/10 01:28:25;;;;;;;;;;;;;;;15.24;90.58;101011.88;1979229;30;19936;-68
2022/09/10 01:29:28;;;;;;;;;;;;;;;15.27;90.26;101008.41;1977589;29;20316;-68
2022/09/10 01:30:36;;;;;;;;;;;;;;;15.26;90.58;101006.06;1969170;30;20039;-68
2022/09/10 01:31:45;;;;;;;;;;;;;;;15.26;90.58;101012.28;1969373;30;19991;-68
2022/09/10 01:32:55;;;;;;;;;;;;;;;15.27;90.80;101008.41;1962466;30;20436;-68
2022/09/10 01:34:04;;;;;;;;;;;;;;;15.28;90.55;101012.72;1958247;30;19927;-67
2022/09/10 01:35:10;;;;;;;;;;;;;;;15.26;90.21;101006.84;1963324;30;20342;-68
2022/09/10 01:36:13;;;;;;;;;;;;;;;15.28;90.29;101007.28;1971428;30;19996;-67
2022/09/10 01:37:20;;;;;;;;;;;;;;;15.30;90.48;101012.34;1971792;30;19941;-68
2022/09/10 01:38:24;;;;;;;;;;;;;;;15.28;90.28;101010.00;1971902;30;19933;-68
2022/09/10 01:39:27;;;;;;;;;;;;;;;15.30;90.29;101007.66;1970956;30;19932;-68
2022/09/10 01:40:33;;;;;;;;;;;;;;;15.30;90.43;101013.13;1974441;29;19930;-68
2022/09/10 01:41:38;;;;;;;;;;;;;;;15.30;90.30;101010.38;1972257;30;19930;-68
2022/09/10 01:42:41;;;;;;;;;;;;;;;15.32;90.19;101016.25;1969558;30;19980;-68
2022/09/10 01:43:44;;;;;;;;;;;;;;;15.34;90.62;101007.72;1963216;30;19938;-68
2022/09/10 01:44:48;;;;;;;;;;;;;;;15.33;90.61;101001.53;1970010;30;19933;-68
2022/09/10 01:46:18;;;;;;;;;;;;;;;15.33;90.61;101001.53;1977095;29;19925;-68
2022/09/10 01:47:26;;;;;;;;;;;;;;;15.31;90.42;101008.47;1963223;30;19987;-68
2022/09/10 01:48:35;;;;;;;;;;;;;;;15.32;90.38;101005.38;1958774;30;20025;-68
2022/09/10 01:49:40;;;;;;;;;;;;;;;15.33;90.45;101006.97;1957991;30;19969;-68
2022/09/10 01:50:45;;;;;;;;;;;;;;;15.34;90.59;101003.06;1970704;30;19933;-68
2022/09/10 01:51:52;;;;;;;;;;;;;;;15.35;90.58;101001.91;1972586;30;20399;-68
2022/09/10 01:53:02;;;;;;;;;;;;;;;15.36;90.62;101006.22;1974170;30;20651;-68
2022/09/10 01:54:14;;;;;;;;;;;;;;;15.38;90.32;100997.69;1978184;29;19948;-69
2022/09/10 01:55:26;;;;;;;;;;;;;;;15.39;90.28;101004.72;1970743;30;19925;-69
2022/09/10 01:56:34;;;;;;;;;;;;;;;15.40;90.15;101000.84;1958607;30;20293;-68
2022/09/10 01:57:42;;;;;;;;;;;;;;;15.40;90.14;101004.34;1972095;30;20439;-68
2022/09/10 01:58:46;;;;;;;;;;;;;;;15.41;90.02;101002.44;1971087;30;19930;-68
2022/09/10 01:59:58;;;;;;;;;;;;;;;15.41;89.67;100999.69;1962769;30;19998;-67
2022/09/10 02:01:06;;;;;;;;;;;;;;;15.41;90.24;101000.50;1970867;30;19978;-67
2022/09/10 02:02:12;;;;;;;;;;;;;;;15.40;90.03;101000.84;1975564;29;19985;-67
2022/09/10 02:03:17;;;;;;;;;;;;;;;15.40;90.03;100998.91;1966239;30;19930;-67
2022/09/10 02:04:21;;;;;;;;;;;;;;;15.39;89.60;101002.00;1971744;30;20438;-67
2022/09/10 02:05:25;;;;;;;;;;;;;;;15.39;89.81;101010.97;1970978;30;19965;-67
2022/09/10 02:06:32;;;;;;;;;;;;;;;15.39;90.34;101000.06;1969368;30;19976;-67
2022/09/10 02:07:35;;;;;;;;;;;;;;;15.37;90.30;100998.81;1966207;30;19930;-67
2022/09/10 02:08:39;;;;;;;;;;;;;;;15.36;90.20;100998.06;1972249;30;20417;-69
2022/09/10 02:09:42;;;;;;;;;;;;;;;15.34;90.01;101002.28;1973390;30;19926;-70
2022/09/10 02:10:48;;;;;;;;;;;;;;;15.34;90.09;101008.53;1972176;30;19929;-68
2022/09/10 02:11:53;;;;;;;;;;;;;;;15.32;90.19;100997.22;1976154;30;19937;-68
2022/09/10 02:13:21;;;;;;;;;;;;;;;15.32;90.28;101010.81;1978671;29;19933;-69
2022/09/10 02:14:43;;;;;;;;;;;;;;;15.31;90.13;101001.09;1979755;29;20255;-69
2022/09/10 02:16:21;;;;;;;;;;;;;;;15.30;90.27;100996.78;1960031;30;19930;-69
2022/09/10 02:17:27;;;;;;;;;;;;;;;15.31;90.18;101009.25;1961454;30;20354;-70
2022/09/10 02:18:31;;;;;;;;;;;;;;;15.30;90.65;101004.94;1974194;30;19926;-70
2022/09/10 02:19:33;;;;;;;;;;;;;;;15.33;90.46;101006.16;1978376;29;19986;-70
2022/09/10 02:20:37;;;;;;;;;;;;;;;15.31;90.69;101003.81;1975409;30;19926;-70
2022/09/10 02:21:39;;;;;;;;;;;;;;;15.32;90.71;101005.38;1971246;29;19942;-70
2022/09/10 02:22:44;;;;;;;;;;;;;;;15.30;90.55;101007.66;1983137;29;19925;-70
2022/09/10 02:23:49;;;;;;;;;;;;;;;15.28;90.64;101001.84;1981420;29;19926;-70
2022/09/10 02:24:52;;;;;;;;;;;;;;;15.27;90.26;101011.13;1983528;29;19933;-69
2022/09/10 02:25:54;;;;;;;;;;;;;;;15.28;90.23;101009.19;1978735;29;19929;-70
2022/09/10 02:27:03;;;;;;;;;;;;;;;15.27;90.52;101013.84;1979105;30;19925;-69
2022/09/10 02:28:05;;;;;;;;;;;;;;;15.28;90.36;101004.56;1973060;29;20425;-68
2022/09/10 02:29:09;;;;;;;;;;;;;;;15.27;90.32;101007.66;1973904;29;19925;-67
2022/09/10 02:30:15;;;;;;;;;;;;;;;15.28;90.24;101003.75;1976688;30;19929;-68
2022/09/10 02:31:18;;;;;;;;;;;;;;;15.30;90.65;101009.63;1977872;30;20394;-68
2022/09/10 02:32:20;;;;;;;;;;;;;;;15.29;90.50;101002.59;1969856;30;20412;-68
2022/09/10 02:33:22;;;;;;;;;;;;;;;15.30;90.28;101010.38;1960118;30;19976;-67
2022/09/10 02:34:24;;;;;;;;;;;;;;;15.29;90.43;101006.13;1966878;30;19937;-69
2022/09/10 02:35:27;;;;;;;;;;;;;;;15.29;90.50;100999.88;1970819;30;20394;-67
2022/09/10 02:36:30;;;;;;;;;;;;;;;15.28;90.48;101001.84;1978482;29;19937;-68
2022/09/10 02:37:33;;;;;;;;;;;;;;;15.29;90.55;100999.88;1972372;30;20374;-68
2022/09/10 02:38:35;;;;;;;;;;;;;;;15.27;90.49;101000.25;1977257;29;19929;-68
2022/09/10 02:39:38;;;;;;;;;;;;;;;15.27;90.17;100997.53;1982252;29;19925;-68
2022/09/10 02:40:42;;;;;;;;;;;;;;;15.28;90.26;100998.31;1971618;30;19998;-69
2022/09/10 02:41:46;;;;;;;;;;;;;;;15.27;90.41;101002.97;1978852;29;20643;-68
2022/09/10 02:42:48;;;;;;;;;;;;;;;15.29;90.54;101003.41;1979465;30;20279;-69
2022/09/10 02:43:56;;;;;;;;;;;;;;;15.28;90.38;100999.13;1977839;29;20450;-68
2022/09/10 02:44:59;;;;;;;;;;;;;;;15.27;90.07;101000.25;1975717;29;19925;-68
2022/09/10 02:46:06;;;;;;;;;;;;;;;15.27;90.45;101008.41;1971028;30;20053;-68
2022/09/10 02:47:09;;;;;;;;;;;;;;;15.27;90.32;101007.66;1964570;30;19930;-68
2022/09/10 02:48:12;;;;;;;;;;;;;;;15.26;90.35;101012.28;1971434;30;19926;-68
2022/09/10 02:49:15;;;;;;;;;;;;;;;15.25;90.21;101008.00;1977819;29;19967;-68
2022/09/10 02:50:17;;;;;;;;;;;;;;;15.25;90.51;101010.72;1968212;30;20420;-68
2022/09/10 02:51:19;;;;;;;;;;;;;;;15.24;90.20;101009.16;1966501;30;20413;-68
2022/09/10 02:52:22;;;;;;;;;;;;;;;15.23;90.31;101013.03;1973063;30;20371;-68
2022/09/10 02:53:24;;;;;;;;;;;;;;;15.24;90.48;101014.59;1972808;30;19930;-68
2022/09/10 02:54:30;;;;;;;;;;;;;;;15.23;90.34;101014.94;1967229;30;19937;-69
2022/09/10 02:55:32;;;;;;;;;;;;;;;15.23;90.15;101014.94;1961886;30;19962;-68
2022/09/10 02:56:35;;;;;;;;;;;;;;;15.24;90.34;101016.53;1978027;29;19933;-68
2022/09/10 02:57:38;;;;;;;;;;;;;;;15.22;90.53;101018.84;1979948;29;19932;-68
2022/09/10 02:58:40;;;;;;;;;;;;;;;15.22;90.41;101018.84;1973578;30;19937;-68
2022/09/10 02:59:43;;;;;;;;;;;;;;;15.21;90.37;101015.31;1968296;30;20362;-69
2022/09/10 03:00:46;;;;;;;;;;;;;;;15.21;90.50;101019.97;1958397;30;19930;-69
2022/09/10 03:01:49;;;;;;;;;;;;;;;15.21;90.57;101026.19;1966707;30;19965;-68
2022/09/10 03:02:51;;;;;;;;;;;;;;;15.20;90.51;101024.66;1980837;29;20012;-68
2022/09/10 03:03:54;;;;;;;;;;;;;;;15.20;90.30;101021.13;1980322;29;19933;-68
2022/09/10 03:04:57;;;;;;;;;;;;;;;15.20;90.44;101024.66;1968622;30;19959;-68
2022/09/10 03:05:59;;;;;;;;;;;;;;;15.18;90.17;101026.16;1969364;30;19933;-68
2022/09/10 03:07:01;;;;;;;;;;;;;;;15.18;90.21;101026.94;1974824;29;19941;-69
2022/09/10 03:08:03;;;;;;;;;;;;;;;15.18;90.19;101020.69;1973095;30;19926;-68
2022/09/10 03:09:06;;;;;;;;;;;;;;;15.17;90.36;101022.66;1964635;30;20527;-68
2022/09/10 03:10:07;;;;;;;;;;;;;;;15.16;90.09;101020.31;1969922;30;19926;-68
2022/09/10 03:11:14;;;;;;;;;;;;;;;15.16;90.18;101023.78;1980053;29;19929;-67
2022/09/10 03:12:15;;;;;;;;;;;;;;;15.16;90.17;101029.22;1979729;29;19929;-68
2022/09/10 03:13:18;;;;;;;;;;;;;;;15.17;90.01;101021.88;1973970;29;19983;-68
2022/09/10 03:14:22;;;;;;;;;;;;;;;15.17;90.05;101025.38;1980707;30;19933;-68
2022/09/10 03:15:25;;;;;;;;;;;;;;;15.18;89.80;101031.59;1980327;29;19989;-68
2022/09/10 03:16:26;;;;;;;;;;;;;;;15.19;90.16;101027.72;1979731;29;19926;-68
2022/09/10 03:17:31;;;;;;;;;;;;;;;15.20;90.57;101024.66;1980053;29;19937;-68
2022/09/10 03:18:34;;;;;;;;;;;;;;;15.20;90.33;101024.66;1976419;29;19933;-69
2022/09/10 03:19:38;;;;;;;;;;;;;;;15.21;90.20;101019.97;1967783;30;19941;-68
2022/09/10 03:20:40;;;;;;;;;;;;;;;15.22;90.18;101027.78;1972264;30;20049;-67
2022/09/10 03:21:46;;;;;;;;;;;;;;;15.24;90.04;101021.97;1980390;29;19926;-69
2022/09/10 03:22:50;;;;;;;;;;;;;;;15.24;90.33;101030.16;1980962;30;20318;-67
2022/09/10 03:23:55;;;;;;;;;;;;;;;15.21;90.22;101028.94;1980029;29;19933;-68
2022/09/10 03:25:00;;;;;;;;;;;;;;;15.22;90.23;101027.00;1977468;29;20009;-68
2022/09/10 03:26:03;;;;;;;;;;;;;;;15.20;90.15;101030.09;1980611;30;20363;-68
2022/09/10 03:27:05;;;;;;;;;;;;;;;15.19;90.21;101033.94;1979511;29;20445;-68
2022/09/10 03:28:09;;;;;;;;;;;;;;;15.18;89.88;101032.38;1980080;29;20351;-68
2022/09/10 03:29:11;;;;;;;;;;;;;;;15.18;90.26;101028.88;1965440;30;19930;-68
2022/09/10 03:30:15;;;;;;;;;;;;;;;15.19;90.26;101030.44;1966737;30;19991;-67
2022/09/10 03:31:17;;;;;;;;;;;;;;;15.17;89.74;101030.81;1971965;30;19926;-68
2022/09/10 03:32:22;;;;;;;;;;;;;;;15.19;90.29;101033.16;1976048;30;20023;-68
2022/09/10 03:33:27;;;;;;;;;;;;;;;15.18;90.38;101032.38;1970573;30;19933;-68
2022/09/10 03:34:30;;;;;;;;;;;;;;;15.16;90.59;101034.66;1979279;30;19982;-68
2022/09/10 03:35:33;;;;;;;;;;;;;;;15.17;90.14;101036.25;1967162;30;19960;-68
2022/09/10 03:36:35;;;;;;;;;;;;;;;15.18;90.66;101032.38;1966458;30;19930;-68
2022/09/10 03:37:39;;;;;;;;;;;;;;;15.17;90.67;101033.53;1966287;30;19940;-68
2022/09/10 03:38:42;;;;;;;;;;;;;;;15.17;90.64;101040.91;1972257;30;20288;-69
2022/09/10 03:39:44;;;;;;;;;;;;;;;15.17;90.30;101036.25;1962672;30;19937;-68
2022/09/10 03:40:51;;;;;;;;;;;;;;;15.18;90.31;101037.81;1979096;29;19955;-68
2022/09/10 03:41:54;;;;;;;;;;;;;;;15.19;90.51;101031.22;1975484;29;19936;-68
2022/09/10 03:42:56;;;;;;;;;;;;;;;15.18;90.29;101037.81;1970673;30;20461;-69
2022/09/10 03:43:58;;;;;;;;;;;;;;;15.19;90.40;101039.38;1965085;30;19976;-69
2022/09/10 03:45:01;;;;;;;;;;;;;;;15.20;90.29;101035.53;1978779;29;19936;-68
2022/09/10 03:46:04;;;;;;;;;;;;;;;15.20;90.24;101035.53;1976628;29;19929;-69
2022/09/10 03:47:11;;;;;;;;;;;;;;;15.20;90.68;101034.72;1969442;30;20150;-69
2022/09/10 03:48:13;;;;;;;;;;;;;;;15.19;90.54;101031.22;1971647;30;19955;-68
2022/09/10 03:49:17;;;;;;;;;;;;;;;15.18;90.20;101035.09;1979269;29;19929;-69
2022/09/10 03:50:19;;;;;;;;;;;;;;;15.19;90.42;101036.66;1972870;29;20352;-68
2022/09/10 03:51:23;;;;;;;;;;;;;;;15.20;90.45;101035.53;1974682;29;19930;-68
2022/09/10 03:52:25;;;;;;;;;;;;;;;15.20;90.72;101035.53;1978943;29;21012;-69
2022/09/10 03:53:28;;;;;;;;;;;;;;;15.18;90.34;101037.81;1964276;30;20409;-69
2022/09/10 03:54:30;;;;;;;;;;;;;;;15.18;90.39;101040.53;1963056;30;19930;-69
2022/09/10 03:55:33;;;;;;;;;;;;;;;15.19;90.67;101033.94;1979551;29;19929;-68
2022/09/10 03:56:35;;;;;;;;;;;;;;;15.18;90.35;101040.53;1971780;30;19966;-69
2022/09/10 03:57:37;;;;;;;;;;;;;;;15.19;90.48;101033.94;1971330;30;20387;-69
2022/09/10 03:58:40;;;;;;;;;;;;;;;15.17;90.56;101041.69;1979456;30;19930;-69
2022/09/10 03:59:45;;;;;;;;;;;;;;;15.16;91.09;101029.22;1970350;30;19932;-69
2022/09/10 04:00:47;;;;;;;;;;;;;;;15.15;90.88;101035.03;1971674;30;19930;-67
2022/09/10 04:01:51;;;;;;;;;;;;;;;15.14;90.93;101034.28;1977890;30;19959;-67
2022/09/10 04:02:53;;;;;;;;;;;;;;;15.14;90.82;101028.84;1977677;30;19929;-68
2022/09/10 04:03:57;;;;;;;;;;;;;;;15.14;90.72;101030.75;1974531;29;20374;-68
2022/09/10 04:05:02;;;;;;;;;;;;;;;15.15;90.70;101037.75;1975790;30;19930;-68
2022/09/10 04:06:08;;;;;;;;;;;;;;;15.13;90.97;101029.97;1978318;29;19929;-69
2022/09/10 04:07:10;;;;;;;;;;;;;;;15.15;90.86;101035.84;1976295;29;19933;-67
2022/09/10 04:08:13;;;;;;;;;;;;;;;15.15;91.13;101033.13;1975598;30;19976;-68
2022/09/10 04:09:15;;;;;;;;;;;;;;;15.15;90.90;101033.13;1974834;29;19933;-69
2022/09/10 04:10:19;;;;;;;;;;;;;;;15.16;90.79;101034.66;1979285;29;19937;-69
2022/09/10 04:11:26;;;;;;;;;;;;;;;15.15;90.65;101037.75;1965240;30;20431;-67
2022/09/10 04:12:30;;;;;;;;;;;;;;;15.17;90.49;101032.75;1963187;30;19938;-67
2022/09/10 04:13:32;;;;;;;;;;;;;;;15.16;90.42;101029.22;1964311;30;20326;-68
2022/09/10 04:14:35;;;;;;;;;;;;;;;15.17;90.35;101035.47;1957437;30;19983;-69
2022/09/10 04:15:37;;;;;;;;;;;;;;;15.16;90.47;101031.94;1964292;30;19970;-68
2022/09/10 04:16:40;;;;;;;;;;;;;;;15.17;90.39;101033.53;1970185;30;19930;-68
2022/09/10 04:17:45;;;;;;;;;;;;;;;15.18;90.62;101026.16;1967754;30;19934;-67
2022/09/10 04:18:50;;;;;;;;;;;;;;;15.18;90.62;101028.88;1969675;30;19929;-67
2022/09/10 04:19:51;;;;;;;;;;;;;;;15.18;90.47;101031.59;1972644;30;19933;-68
2022/09/10 04:20:56;;;;;;;;;;;;;;;15.18;90.22;101032.38;1971647;30;19930;-68
2022/09/10 04:21:58;;;;;;;;;;;;;;;15.18;90.42;101023.44;1970869;30;20697;-68
2022/09/10 04:23:01;;;;;;;;;;;;;;;15.19;90.60;101033.16;1969182;30;20017;-68
2022/09/10 04:24:08;;;;;;;;;;;;;;;15.19;90.06;101033.94;1965172;30;19934;-69
2022/09/10 04:25:12;;;;;;;;;;;;;;;15.19;90.27;101038.63;1967055;30;19953;-69
2022/09/10 04:26:16;;;;;;;;;;;;;;;15.18;90.28;101037.81;1979379;30;20023;-69
2022/09/10 04:27:21;;;;;;;;;;;;;;;15.18;90.15;101040.53;1966240;30;19937;-69
2022/09/10 04:28:23;;;;;;;;;;;;;;;15.18;90.46;101037.81;1967474;30;19926;-67
2022/09/10 04:29:26;;;;;;;;;;;;;;;15.18;89.92;101043.25;1976018;30;20024;-69
2022/09/10 04:30:29;;;;;;;;;;;;;;;15.19;90.18;101046.78;1977224;29;19926;-70
2022/09/10 04:31:32;;;;;;;;;;;;;;;15.19;90.00;101039.38;1929441;30;1293619;-69
2022/09/10 04:32:41;;;;;;;;;;;;;;;15.20;90.37;101037.44;1967368;30;19934;-68
2022/09/10 04:33:44;;;;;;;;;;;;;;;15.20;90.28;101046.41;1967276;30;19930;-67
2022/09/10 04:34:47;;;;;;;;;;;;;;;15.20;90.53;101045.59;1959965;30;20961;-68
2022/09/10 04:35:50;;;;;;;;;;;;;;;15.20;90.05;101049.13;1971880;30;19926;-69
2022/09/10 04:36:53;;;;;;;;;;;;;;;15.20;90.26;101045.59;1970612;30;20011;-68
2022/09/10 04:37:56;;;;;;;;;;;;;;;15.20;90.32;101051.84;1968381;30;20465;-67
2022/09/10 04:39:01;;;;;;;;;;;;;;;15.19;89.91;101054.94;1968416;30;19930;-68
2022/09/10 04:40:07;;;;;;;;;;;;;;;15.19;90.44;101046.78;1968558;30;20086;-69
2022/09/10 04:41:14;;;;;;;;;;;;;;;15.18;90.04;101053.34;1981252;29;19936;-68
2022/09/10 04:42:19;;;;;;;;;;;;;;;15.17;89.84;101047.13;1965811;30;20020;-68
2022/09/10 04:43:24;;;;;;;;;;;;;;;15.18;90.13;101056.84;1979108;29;20318;-69
2022/09/10 04:44:28;;;;;;;;;;;;;;;15.19;90.32;101049.50;1960999;30;20382;-69
2022/09/10 04:45:31;;;;;;;;;;;;;;;15.18;90.67;101048.69;1954794;30;19966;-68
2022/09/10 04:46:35;;;;;;;;;;;;;;;15.16;90.65;101059.16;1969862;30;19986;-69
2022/09/10 04:47:37;;;;;;;;;;;;;;;15.15;90.81;101052.16;1973846;29;20033;-69
2022/09/10 04:48:41;;;;;;;;;;;;;;;15.14;90.72;101061.47;1965204;30;20076;-68
2022/09/10 04:49:44;;;;;;;;;;;;;;;15.12;90.98;101055.59;1955458;30;19937;-69
2022/09/10 04:50:47;;;;;;;;;;;;;;;15.11;90.78;101055.97;1956578;30;19937;-67
2022/09/10 04:52:15;;;;;;;;;;;;;;;15.10;91.09;101063.34;1974980;29;19936;-69
2022/09/10 04:53:20;;;;;;;;;;;;;;;15.08;90.90;101064.88;1970708;30;20337;-69
2022/09/10 04:54:27;;;;;;;;;;;;;;;15.09;91.19;101060.97;1962188;30;19963;-69
2022/09/10 04:55:31;;;;;;;;;;;;;;;15.08;91.24;101064.88;1958580;30;19931;-68
2022/09/10 04:56:36;;;;;;;;;;;;;;;15.07;90.94;101069.50;1964169;30;19929;-67
2022/09/10 04:57:41;;;;;;;;;;;;;;;15.09;91.09;101069.16;1972259;30;19933;-69
2022/09/10 04:58:43;;;;;;;;;;;;;;;15.09;91.18;101064.50;1979445;29;20310;-68
2022/09/10 04:59:46;;;;;;;;;;;;;;;15.10;90.93;101071.50;1979736;30;19933;-68
2022/09/10 05:00:50;;;;;;;;;;;;;;;15.11;90.99;101075.78;1979136;29;20429;-68
2022/09/10 05:01:53;;;;;;;;;;;;;;;15.11;91.12;101069.56;1958836;30;20043;-68
2022/09/10 05:02:56;;;;;;;;;;;;;;;15.09;90.99;101072.66;1962321;30;20364;-67
2022/09/10 05:03:58;;;;;;;;;;;;;;;15.10;90.59;101074.22;1966366;30;20411;-69
2022/09/10 05:05:01;;;;;;;;;;;;;;;15.08;91.23;101084.66;1957593;30;20021;-68
2022/09/10 05:06:04;;;;;;;;;;;;;;;15.06;90.88;101072.59;1964350;30;19930;-67
2022/09/10 05:07:06;;;;;;;;;;;;;;;15.08;90.85;101081.19;1960135;30;20462;-68
2022/09/10 05:08:11;;;;;;;;;;;;;;;15.07;90.80;101077.66;1958020;30;20520;-68
2022/09/10 05:09:14;;;;;;;;;;;;;;;15.07;90.80;101085.81;1971232;30;20028;-68
2022/09/10 05:10:16;;;;;;;;;;;;;;;15.09;90.81;101071.84;1978774;29;19933;-69
2022/09/10 05:11:19;;;;;;;;;;;;;;;15.09;90.99;101078.09;1979234;30;20036;-68
2022/09/10 05:12:22;;;;;;;;;;;;;;;15.10;90.82;101085.09;1978442;29;20428;-68
2022/09/10 05:13:25;;;;;;;;;;;;;;;15.12;90.92;101082.00;1976491;29;20331;-69
2022/09/10 05:14:28;;;;;;;;;;;;;;;15.11;91.00;101075.00;1971204;30;19925;-68
2022/09/10 05:15:33;;;;;;;;;;;;;;;15.11;91.08;101081.22;1969117;30;19930;-67
2022/09/10 05:16:37;;;;;;;;;;;;;;;15.13;91.07;101078.91;1973019;29;20422;-68
2022/09/10 05:17:39;;;;;;;;;;;;;;;15.14;90.70;101080.50;1967983;30;19949;-68
2022/09/10 05:18:42;;;;;;;;;;;;;;;15.14;90.86;101080.50;1965649;30;19933;-68
2022/09/10 05:19:45;;;;;;;;;;;;;;;15.17;90.69;101081.69;1965027;30;19930;-68
2022/09/10 05:20:47;;;;;;;;;;;;;;;15.17;91.01;101079.78;1971853;30;19936;-69
2022/09/10 05:21:49;;;;;;;;;;;;;;;15.19;90.71;101082.13;1979572;29;19925;-68
2022/09/10 05:22:53;;;;;;;;;;;;;;;15.18;90.61;101083.25;1971740;30;19932;-68
2022/09/10 05:23:57;;;;;;;;;;;;;;;15.19;90.83;101082.91;1963342;30;20303;-68
2022/09/10 05:25:00;;;;;;;;;;;;;;;15.18;90.66;101080.53;1956717;30;20071;-68
2022/09/10 05:26:02;;;;;;;;;;;;;;;15.19;90.67;101085.63;1968201;30;19925;-68
2022/09/10 05:27:05;;;;;;;;;;;;;;;15.17;90.42;101087.16;1979423;29;19929;-68
2022/09/10 05:28:08;;;;;;;;;;;;;;;15.17;90.13;101092.59;1978735;29;20013;-68
2022/09/10 05:29:11;;;;;;;;;;;;;;;15.16;90.58;101091.78;1979171;29;19929;-68
2022/09/10 05:30:14;;;;;;;;;;;;;;;15.16;90.61;101089.06;1980962;29;20070;-68
2022/09/10 05:31:17;;;;;;;;;;;;;;;15.14;89.95;101091.38;1976643;29;19929;-68